Time;durP1;ratioP1;P1;durP2;ratioP2;P2;SDS_P1;SDS_P2;PMS_P1;PMS_P2;Temp;Humidity;BMP_temperature;BMP_pressure;BME280_temperature;BME280_humidity;BME280_pressure;Samples;Min_cycle;Max_cycle;Signal;HPM_P1;HPM_P2
2022/09/22 00:02:12;;;;;;;;;;;;;;;;;;4993439;28;20324;-79
2022/09/22 00:04:38;;;;;;;;;;;;;;;;;;4993833;28;19924;-78
2022/09/22 00:07:03;;;;;;;;;;;;;;;;;;4978271;28;20305;-79
2022/09/22 00:09:29;;;;;;;;;;;;;;;;;;4994682;28;20008;-77
2022/09/22 00:11:54;;;;;;;;;;;;;;;;;;4993560;28;19914;-78
2022/09/22 00:14:20;;;;;;;;;;;;;;;;;;4993214;28;19921;-79
2022/09/22 00:16:45;;;;;;;;;;;;;;;;;;4994447;28;20417;-79
2022/09/22 00:19:10;;;;;;;;;;;;;;;;;;4994317;28;19913;-79
2022/09/22 00:21:36;;;;;;;;;;;;;;;;;;4994076;28;20012;-80
2022/09/22 00:24:01;;;;;;;;;;;;;;;;;;4992729;28;19913;-80
2022/09/22 00:26:27;;;;;;;;;;;;;;;;;;4992884;28;19917;-80
2022/09/22 00:28:52;;;;;;;;;;;;;;;;;;4993083;28;19921;-78
2022/09/22 00:31:18;;;;;;;;;;;;;;;;;;4993929;28;20193;-78
2022/09/22 00:33:43;;;;;;;;;;;;;;;;;;4991765;28;19921;-80
2022/09/22 00:36:09;;;;;;;;;;;;;;;;;;4992560;28;19920;-80
2022/09/22 00:38:35;;;;;;;;;;;;;;;;;;4992680;28;20645;-79
2022/09/22 00:41:00;;;;;;;;;;;;;;;;;;4992554;28;19961;-78
2022/09/22 00:43:25;;;;;;;;;;;;;;;;;;4993617;28;19914;-80
2022/09/22 00:45:51;;;;;;;;;;;;;;;;;;4997371;28;20375;-80
2022/09/22 00:48:16;;;;;;;;;;;;;;;;;;5001585;28;19918;-80
2022/09/22 00:50:42;;;;;;;;;;;;;;;;;;4999195;28;20289;-80
2022/09/22 00:53:07;;;;;;;;;;;;;;;;;;4997350;28;20377;-78
2022/09/22 00:55:33;;;;;;;;;;;;;;;;;;4994997;28;20194;-79
2022/09/22 00:57:58;;;;;;;;;;;;;;;;;;4993741;28;19918;-78
2022/09/22 01:00:23;;;;;;;;;;;;;;;;;;4994041;28;19914;-79
2022/09/22 01:02:49;;;;;;;;;;;;;;;;;;4993762;28;19913;-78
2022/09/22 01:05:14;;;;;;;;;;;;;;;;;;4993611;28;20281;-78
2022/09/22 01:07:40;;;;;;;;;;;;;;;;;;4992380;28;19924;-78
2022/09/22 01:10:06;;;;;;;;;;;;;;;;;;4993397;28;19953;-78
2022/09/22 01:12:31;;;;;;;;;;;;;;;;;;4993262;28;19921;-81
2022/09/22 01:14:57;;;;;;;;;;;;;;;;;;4991816;28;19964;-80
2022/09/22 01:17:22;;;;;;;;;;;;;;;;;;4992270;28;19913;-79
2022/09/22 01:19:48;;;;;;;;;;;;;;;;;;4993363;28;19921;-79
2022/09/22 01:22:14;;;;;;;;;;;;;;;;;;4993473;28;19920;-78
2022/09/22 01:24:40;;;;;;;;;;;;;;;;;;4993306;28;19914;-80
2022/09/22 01:27:05;;;;;;;;;;;;;;;;;;4993430;28;19914;-80
2022/09/22 01:29:30;;;;;;;;;;;;;;;;;;4992756;28;19910;-82
2022/09/22 01:31:56;;;;;;;;;;;;;;;;;;4976006;28;19968;-78
2022/09/22 01:34:21;;;;;;;;;;;;;;;;;;4993072;28;19914;-78
2022/09/22 01:36:46;;;;;;;;;;;;;;;;;;4992130;28;19922;-80
2022/09/22 01:39:12;;;;;;;;;;;;;;;;;;4991765;28;20316;-83
2022/09/22 01:41:37;;;;;;;;;;;;;;;;;;4992070;28;19924;-78
2022/09/22 01:44:03;;;;;;;;;;;;;;;;;;4992049;28;20001;-80
2022/09/22 01:46:28;;;;;;;;;;;;;;;;;;4992466;28;19949;-78
2022/09/22 01:48:53;;;;;;;;;;;;;;;;;;4992972;28;19914;-79
2022/09/22 01:51:19;;;;;;;;;;;;;;;;;;4975552;28;20555;-80
2022/09/22 01:53:44;;;;;;;;;;;;;;;;;;4991587;28;19914;-80
2022/09/22 01:56:09;;;;;;;;;;;;;;;;;;4991650;28;19914;-80
2022/09/22 01:58:36;;;;;;;;;;;;;;;;;;4991795;28;20359;-80
2022/09/22 02:01:01;;;;;;;;;;;;;;;;;;4993000;28;20012;-80
2022/09/22 02:03:27;;;;;;;;;;;;;;;;;;4992368;28;20313;-80
2022/09/22 02:05:52;;;;;;;;;;;;;;;;;;4993032;28;19910;-78
2022/09/22 02:08:17;;;;;;;;;;;;;;;;;;4992986;28;20347;-81
2022/09/22 02:10:43;;;;;;;;;;;;;;;;;;4992957;28;19951;-81
2022/09/22 02:13:08;;;;;;;;;;;;;;;;;;4991988;28;20001;-80
2022/09/22 02:18:18;;;;;;;;;;;;;;;;;;4976796;28;19918;-80
2022/09/22 02:20:43;;;;;;;;;;;;;;;;;;4993981;28;20396;-80
2022/09/22 02:23:08;;;;;;;;;;;;;;;;;;4993023;28;19983;-79
2022/09/22 02:25:34;;;;;;;;;;;;;;;;;;4993066;28;20240;-79
2022/09/22 02:27:59;;;;;;;;;;;;;;;;;;4991681;28;19925;-78
2022/09/22 02:30:25;;;;;;;;;;;;;;;;;;4992851;28;19997;-79
2022/09/22 02:32:50;;;;;;;;;;;;;;;;;;4992544;28;20347;-80
2022/09/22 02:35:15;;;;;;;;;;;;;;;;;;4992048;28;19918;-80
2022/09/22 02:37:41;;;;;;;;;;;;;;;;;;4992687;28;20025;-79
2022/09/22 02:40:06;;;;;;;;;;;;;;;;;;4992533;28;19918;-79
2022/09/22 02:42:31;;;;;;;;;;;;;;;;;;4975122;28;20300;-81
2022/09/22 02:44:57;;;;;;;;;;;;;;;;;;4992674;28;19918;-81
2022/09/22 02:47:22;;;;;;;;;;;;;;;;;;4992610;28;19918;-79
2022/09/22 02:49:47;;;;;;;;;;;;;;;;;;4992630;28;19914;-78
2022/09/22 02:52:13;;;;;;;;;;;;;;;;;;4959854;28;19914;-78
2022/09/22 02:54:38;;;;;;;;;;;;;;;;;;4973072;28;19914;-79
2022/09/22 02:57:03;;;;;;;;;;;;;;;;;;4974277;28;20001;-78
2022/09/22 02:59:29;;;;;;;;;;;;;;;;;;4975148;28;19926;-79
2022/09/22 03:01:54;;;;;;;;;;;;;;;;;;4976601;28;19914;-80
2022/09/22 03:04:20;;;;;;;;;;;;;;;;;;4975130;28;20237;-79
2022/09/22 03:06:45;;;;;;;;;;;;;;;;;;4980277;28;19910;-79
2022/09/22 03:09:10;;;;;;;;;;;;;;;;;;4995644;28;19937;-79
2022/09/22 03:11:36;;;;;;;;;;;;;;;;;;4995916;28;19914;-80
2022/09/22 03:14:01;;;;;;;;;;;;;;;;;;4978143;28;19960;-80
2022/09/22 03:16:26;;;;;;;;;;;;;;;;;;4995897;28;20270;-79
2022/09/22 03:18:52;;;;;;;;;;;;;;;;;;4995703;28;20351;-79
2022/09/22 03:21:17;;;;;;;;;;;;;;;;;;4996202;28;19922;-79
2022/09/22 03:23:42;;;;;;;;;;;;;;;;;;4995815;28;19917;-78
2022/09/22 03:26:08;;;;;;;;;;;;;;;;;;4994827;28;19988;-80
2022/09/22 03:28:33;;;;;;;;;;;;;;;;;;4995454;28;19913;-78
2022/09/22 03:30:59;;;;;;;;;;;;;;;;;;4995683;28;19914;-80
2022/09/22 03:33:24;;;;;;;;;;;;;;;;;;4994281;28;19961;-80
2022/09/22 03:35:49;;;;;;;;;;;;;;;;;;4995626;28;19913;-81
2022/09/22 03:38:15;;;;;;;;;;;;;;;;;;4993963;28;20075;-79
2022/09/22 03:40:40;;;;;;;;;;;;;;;;;;4995839;28;20016;-79
2022/09/22 03:43:05;;;;;;;;;;;;;;;;;;4995892;28;19914;-79
2022/09/22 03:45:31;;;;;;;;;;;;;;;;;;4994589;28;19937;-78
2022/09/22 03:47:57;;;;;;;;;;;;;;;;;;4995522;28;19909;-78
2022/09/22 03:50:23;;;;;;;;;;;;;;;;;;4995229;28;19968;-79
2022/09/22 03:52:48;;;;;;;;;;;;;;;;;;4961175;28;19914;-79
2022/09/22 03:55:14;;;;;;;;;;;;;;;;;;4995074;28;19917;-81
2022/09/22 03:57:39;;;;;;;;;;;;;;;;;;4994273;28;20000;-80
2022/09/22 04:00:05;;;;;;;;;;;;;;;;;;4994716;28;19914;-80
2022/09/22 04:02:37;;;;;;;;;;;;;;;;;;4995056;28;19913;-78
2022/09/22 04:05:02;;;;;;;;;;;;;;;;;;4996558;28;20325;-79
2022/09/22 04:07:28;;;;;;;;;;;;;;;;;;4995409;28;19909;-80
2022/09/22 04:09:53;;;;;;;;;;;;;;;;;;4995446;28;20337;-80
2022/09/22 04:12:19;;;;;;;;;;;;;;;;;;4995633;28;19941;-80
2022/09/22 04:14:44;;;;;;;;;;;;;;;;;;4994819;28;19910;-78
2022/09/22 04:17:10;;;;;;;;;;;;;;;;;;4994492;28;19913;-80
2022/09/22 04:19:35;;;;;;;;;;;;;;;;;;4994508;28;19913;-80
2022/09/22 04:22:00;;;;;;;;;;;;;;;;;;4993376;28;20296;-80
2022/09/22 04:24:26;;;;;;;;;;;;;;;;;;4977041;28;20360;-79
2022/09/22 04:26:51;;;;;;;;;;;;;;;;;;4995523;28;19920;-80
2022/09/22 04:29:16;;;;;;;;;;;;;;;;;;4995435;28;19917;-79
2022/09/22 04:31:42;;;;;;;;;;;;;;;;;;4994613;28;19910;-80
2022/09/22 04:34:07;;;;;;;;;;;;;;;;;;4994364;28;19914;-78
2022/09/22 04:36:33;;;;;;;;;;;;;;;;;;4994343;28;19913;-79
2022/09/22 04:39:02;;;;;;;;;;;;;;;;;;4993986;28;19914;-81
2022/09/22 04:41:28;;;;;;;;;;;;;;;;;;4994043;28;19921;-81
2022/09/22 04:43:53;;;;;;;;;;;;;;;;;;4991947;28;20289;-80
2022/09/22 04:46:19;;;;;;;;;;;;;;;;;;4993913;28;19924;-81
2022/09/22 04:48:44;;;;;;;;;;;;;;;;;;4993923;28;20377;-80
2022/09/22 04:51:09;;;;;;;;;;;;;;;;;;4992654;28;19914;-79
2022/09/22 04:53:35;;;;;;;;;;;;;;;;;;4993408;28;19914;-79
2022/09/22 04:56:00;;;;;;;;;;;;;;;;;;4993931;28;20001;-79
2022/09/22 04:58:25;;;;;;;;;;;;;;;;;;4993758;28;19948;-79
2022/09/22 05:00:54;;;;;;;;;;;;;;;;;;4991433;28;19918;-81
2022/09/22 05:03:19;;;;;;;;;;;;;;;;;;4993417;28;19923;-78
2022/09/22 05:05:45;;;;;;;;;;;;;;;;;;4993900;28;20058;-80
2022/09/22 05:08:10;;;;;;;;;;;;;;;;;;4994897;28;19924;-79
2022/09/22 05:10:36;;;;;;;;;;;;;;;;;;4992596;28;20377;-80
2022/09/22 05:13:01;;;;;;;;;;;;;;;;;;4993692;28;19921;-82
2022/09/22 05:15:26;;;;;;;;;;;;;;;;;;4992241;28;20521;-80
2022/09/22 05:17:52;;;;;;;;;;;;;;;;;;4993801;28;19914;-78
2022/09/22 05:20:18;;;;;;;;;;;;;;;;;;4991915;28;19925;-81
2022/09/22 05:22:43;;;;;;;;;;;;;;;;;;4993281;28;20292;-79
2022/09/22 05:25:10;;;;;;;;;;;;;;;;;;4992385;28;19913;-78
2022/09/22 05:27:36;;;;;;;;;;;;;;;;;;4993689;28;19921;-78
2022/09/22 05:30:01;;;;;;;;;;;;;;;;;;4993643;28;19913;-80
2022/09/22 05:32:27;;;;;;;;;;;;;;;;;;4992434;28;20337;-83
2022/09/22 05:34:52;;;;;;;;;;;;;;;;;;4992447;28;19914;-78
2022/09/22 05:37:18;;;;;;;;;;;;;;;;;;4974341;28;20297;-81
2022/09/22 05:39:43;;;;;;;;;;;;;;;;;;4974943;28;20295;-80
2022/09/22 05:42:10;;;;;;;;;;;;;;;;;;4976731;28;20402;-81
2022/09/22 05:44:36;;;;;;;;;;;;;;;;;;4992810;28;19921;-79
2022/09/22 05:47:01;;;;;;;;;;;;;;;;;;4984954;28;19920;-79
2022/09/22 05:49:27;;;;;;;;;;;;;;;;;;4988427;28;19914;-79
2022/09/22 05:51:56;;;;;;;;;;;;;;;;;;4991686;28;19929;-82
2022/09/22 05:54:21;;;;;;;;;;;;;;;;;;5005032;28;19914;-79
2022/09/22 05:56:46;;;;;;;;;;;;;;;;;;4971808;28;20340;-78
2022/09/22 05:59:12;;;;;;;;;;;;;;;;;;4991301;28;20289;-80
2022/09/22 06:01:38;;;;;;;;;;;;;;;;;;4992469;28;19918;-79
2022/09/22 06:04:03;;;;;;;;;;;;;;;;;;4991070;28;19930;-79
2022/09/22 06:06:28;;;;;;;;;;;;;;;;;;4991422;28;20004;-78
2022/09/22 06:08:54;;;;;;;;;;;;;;;;;;4992579;28;19913;-81
2022/09/22 06:11:19;;;;;;;;;;;;;;;;;;4990654;28;19956;-79
2022/09/22 06:13:49;;;;;;;;;;;;;;;;;;4992219;28;19933;-77
2022/09/22 06:16:14;;;;;;;;;;;;;;;;;;4992408;28;19976;-78
2022/09/22 06:18:40;;;;;;;;;;;;;;;;;;4991447;28;19914;-78
2022/09/22 06:21:05;;;;;;;;;;;;;;;;;;4974707;28;19918;-80
2022/09/22 06:23:31;;;;;;;;;;;;;;;;;;4992260;28;19910;-80
2022/09/22 06:25:57;;;;;;;;;;;;;;;;;;4991194;28;20384;-77
2022/09/22 06:28:22;;;;;;;;;;;;;;;;;;4991110;28;19981;-80
2022/09/22 06:30:50;;;;;;;;;;;;;;;;;;4992125;28;19917;-78
2022/09/22 06:33:16;;;;;;;;;;;;;;;;;;4994031;28;19909;-79
2022/09/22 06:35:41;;;;;;;;;;;;;;;;;;4996727;28;19924;-79
2022/09/22 06:38:07;;;;;;;;;;;;;;;;;;4996199;28;20343;-79
2022/09/22 06:40:32;;;;;;;;;;;;;;;;;;4996654;28;20296;-78
2022/09/22 06:42:58;;;;;;;;;;;;;;;;;;4994736;28;19968;-78
2022/09/22 06:45:24;;;;;;;;;;;;;;;;;;4993740;28;19961;-79
2022/09/22 06:47:50;;;;;;;;;;;;;;;;;;4995793;28;19921;-78
2022/09/22 06:50:16;;;;;;;;;;;;;;;;;;4994522;28;20297;-80
2022/09/22 06:52:42;;;;;;;;;;;;;;;;;;4995628;28;19914;-78
2022/09/22 06:55:09;;;;;;;;;;;;;;;;;;4978484;28;20365;-81
2022/09/22 06:57:34;;;;;;;;;;;;;;;;;;4994840;28;19957;-78
2022/09/22 07:00:00;;;;;;;;;;;;;;;;;;4994040;28;19979;-76
2022/09/22 07:02:28;;;;;;;;;;;;;;;;;;4989478;28;20344;-78
2022/09/22 07:04:54;;;;;;;;;;;;;;;;;;4992270;28;20001;-76
2022/09/22 07:07:19;;;;;;;;;;;;;;;;;;4987826;28;20423;-79
2022/09/22 07:09:45;;;;;;;;;;;;;;;;;;4990550;28;19914;-77
2022/09/22 07:12:10;;;;;;;;;;;;;;;;;;4993667;28;19914;-79
2022/09/22 07:14:36;;;;;;;;;;;;;;;;;;4990545;28;19914;-80
2022/09/22 07:17:01;;;;;;;;;;;;;;;;;;4992381;28;19917;-79
2022/09/22 07:19:26;;;;;;;;;;;;;;;;;;4994187;28;19914;-78
2022/09/22 07:21:52;;;;;;;;;;;;;;;;;;4995142;28;20304;-81
2022/09/22 07:24:17;;;;;;;;;;;;;;;;;;4995011;28;19968;-80
2022/09/22 07:26:43;;;;;;;;;;;;;;;;;;4990542;28;19964;-80
2022/09/22 07:29:10;;;;;;;;;;;;;;;;;;4994236;28;20338;-79
2022/09/22 07:31:35;;;;;;;;;;;;;;;;;;4977772;28;20288;-81
2022/09/22 07:34:01;;;;;;;;;;;;;;;;;;4994838;28;19914;-80
2022/09/22 07:36:26;;;;;;;;;;;;;;;;;;4995357;28;19914;-80
2022/09/22 07:38:52;;;;;;;;;;;;;;;;;;4995084;28;19956;-79
2022/09/22 07:41:17;;;;;;;;;;;;;;;;;;4995796;28;19933;-79
2022/09/22 07:43:43;;;;;;;;;;;;;;;;;;4994831;28;20308;-80
2022/09/22 07:46:08;;;;;;;;;;;;;;;;;;4993676;28;19920;-79
2022/09/22 07:48:40;;;;;;;;;;;;;;;;;;4994907;28;20333;-77
2022/09/22 07:51:07;;;;;;;;;;;;;;;;;;4993394;28;20393;-78
2022/09/22 07:53:33;;;;;;;;;;;;;;;;;;4994727;28;19914;-78
2022/09/22 07:55:58;;;;;;;;;;;;;;;;;;4993081;28;19914;-79
2022/09/22 07:58:24;;;;;;;;;;;;;;;;;;4994689;28;20309;-78
2022/09/22 08:00:50;;;;;;;;;;;;;;;;;;4993502;28;20377;-82
2022/09/22 08:03:15;;;;;;;;;;;;;;;;;;4993330;28;19913;-79
2022/09/22 08:05:40;;;;;;;;;;;;;;;;;;5002442;28;19988;-78
2022/09/22 08:08:06;;;;;;;;;;;;;;;;;;4993278;28;20020;-80
2022/09/22 08:10:34;;;;;;;;;;;;;;;;;;4994830;28;20377;-80
2022/09/22 08:13:01;;;;;;;;;;;;;;;;;;4996084;28;20447;-81
2022/09/22 08:15:27;;;;;;;;;;;;;;;;;;4993004;28;19910;-79
2022/09/22 08:17:53;;;;;;;;;;;;;;;;;;4996835;28;20266;-79
2022/09/22 08:20:18;;;;;;;;;;;;;;;;;;5005213;28;20008;-81
2022/09/22 08:22:44;;;;;;;;;;;;;;;;;;4993784;28;20004;-79
2022/09/22 08:25:11;;;;;;;;;;;;;;;;;;4994525;28;19914;-78
2022/09/22 08:27:38;;;;;;;;;;;;;;;;;;5007517;28;19913;-79
2022/09/22 08:30:04;;;;;;;;;;;;;;;;;;4995191;28;19953;-87
2022/09/22 08:32:29;;;;;;;;;;;;;;;;;;4994026;28;19918;-87
2022/09/22 08:34:56;;;;;;;;;;;;;;;;;;4979640;28;19917;-90
2022/09/22 08:37:22;;;;;;;;;;;;;;;;;;4986408;28;19956;-87
2022/09/22 08:39:48;;;;;;;;;;;;;;;;;;4991404;28;19921;-85
2022/09/22 08:42:13;;;;;;;;;;;;;;;;;;4977997;28;19914;-85
2022/09/22 08:44:39;;;;;;;;;;;;;;;;;;4994457;28;19976;-88
2022/09/22 08:47:04;;;;;;;;;;;;;;;;;;4993449;28;19932;-88
2022/09/22 08:52:14;;;;;;;;;;;;;;;;;;4993260;28;19956;-85
2022/09/22 08:54:40;;;;;;;;;;;;;;;;;;4981805;28;19990;-86
2022/09/22 08:57:10;;;;;;;;;;;;;;;;;;4997349;28;19913;-85
2022/09/22 08:59:36;;;;;;;;;;;;;;;;;;4997779;28;19914;-88
2022/09/22 09:02:01;;;;;;;;;;;;;;;;;;4977693;28;20033;-84
2022/09/22 09:04:26;;;;;;;;;;;;;;;;;;4988991;28;20404;-83
2022/09/22 09:06:52;;;;;;;;;;;;;;;;;;4975858;28;20305;-82
2022/09/22 09:09:17;;;;;;;;;;;;;;;;;;4991926;28;19918;-82
2022/09/22 09:11:43;;;;;;;;;;;;;;;;;;4975717;28;20289;-83
2022/09/22 09:14:08;;;;;;;;;;;;;;;;;;4992019;28;19914;-82
2022/09/22 09:16:33;;;;;;;;;;;;;;;;;;4993086;28;21271;-82
2022/09/22 09:18:59;;;;;;;;;;;;;;;;;;4991564;28;19914;-80
2022/09/22 09:21:24;;;;;;;;;;;;;;;;;;4975769;28;20387;-81
2022/09/22 09:23:51;;;;;;;;;;;;;;;;;;4991817;28;19913;-83
2022/09/22 09:26:17;;;;;;;;;;;;;;;;;;4991473;28;19914;-82
2022/09/22 09:28:42;;;;;;;;;;;;;;;;;;4991260;28;20284;-82
2022/09/22 09:31:07;;;;;;;;;;;;;;;;;;4975997;28;20442;-82
2022/09/22 09:33:33;;;;;;;;;;;;;;;;;;4983629;28;19918;-82
2022/09/22 09:35:58;;;;;;;;;;;;;;;;;;4975715;28;19924;-82
2022/09/22 09:38:23;;;;;;;;;;;;;;;;;;4992182;28;19921;-81
2022/09/22 09:40:53;;;;;;;;;;;;;;;;;;4991692;28;19940;-82
2022/09/22 09:43:20;;;;;;;;;;;;;;;;;;4987128;28;19972;-81
2022/09/22 09:45:50;;;;;;;;;;;;;;;;;;4975043;28;20365;-82
2022/09/22 09:48:15;;;;;;;;;;;;;;;;;;4974719;28;19914;-81
2022/09/22 09:50:40;;;;;;;;;;;;;;;;;;4985125;28;19918;-82
2022/09/22 09:53:06;;;;;;;;;;;;;;;;;;4974156;28;19929;-81
2022/09/22 09:55:34;;;;;;;;;;;;;;;;;;4999566;28;19963;-81
2022/09/22 09:57:59;;;;;;;;;;;;;;;;;;4960341;28;19921;-84
2022/09/22 10:00:31;;;;;;;;;;;;;;;;;;4992004;28;20295;-81
2022/09/22 10:02:56;;;;;;;;;;;;;;;;;;5003619;28;20003;-82
2022/09/22 10:05:25;;;;;;;;;;;;;;;;;;4959935;28;20365;-81
2022/09/22 10:07:50;;;;;;;;;;;;;;;;;;4997997;28;20408;-82
2022/09/22 10:10:16;;;;;;;;;;;;;;;;;;4999973;28;20094;-83
2022/09/22 10:12:41;;;;;;;;;;;;;;;;;;4980116;28;20372;-82
2022/09/22 10:15:06;;;;;;;;;;;;;;;;;;4972292;28;19937;-82
2022/09/22 10:17:32;;;;;;;;;;;;;;;;;;4997406;28;19921;-81
2022/09/22 10:19:58;;;;;;;;;;;;;;;;;;4998928;28;19960;-82
2022/09/22 10:22:23;;;;;;;;;;;;;;;;;;4995900;28;20345;-81
2022/09/22 10:24:49;;;;;;;;;;;;;;;;;;4995377;28;19913;-82
2022/09/22 10:27:14;;;;;;;;;;;;;;;;;;4993755;28;19969;-82
2022/09/22 10:29:40;;;;;;;;;;;;;;;;;;4996089;28;19913;-81
2022/09/22 10:32:06;;;;;;;;;;;;;;;;;;4998209;28;19914;-82
2022/09/22 10:34:32;;;;;;;;;;;;;;;;;;4989241;28;19994;-80
2022/09/22 10:36:57;;;;;;;;;;;;;;;;;;4996047;28;20527;-82
2022/09/22 10:39:22;;;;;;;;;;;;;;;;;;4996935;28;20423;-83
2022/09/22 10:41:48;;;;;;;;;;;;;;;;;;4995709;28;19921;-82
2022/09/22 10:44:13;;;;;;;;;;;;;;;;;;4997468;28;19936;-82
2022/09/22 10:46:38;;;;;;;;;;;;;;;;;;4980592;28;20286;-80
2022/09/22 10:49:04;;;;;;;;;;;;;;;;;;5003777;28;19914;-80
2022/09/22 10:51:30;;;;;;;;;;;;;;;;;;4999114;28;19914;-82
2022/09/22 10:53:55;;;;;;;;;;;;;;;;;;4996204;28;19916;-82
2022/09/22 10:56:21;;;;;;;;;;;;;;;;;;4997218;28;19925;-80
2022/09/22 10:58:46;;;;;;;;;;;;;;;;;;4997075;28;19914;-80
2022/09/22 11:01:12;;;;;;;;;;;;;;;;;;4995479;28;19964;-81
2022/09/22 11:03:47;;;;;;;;;;;;;;;;;;4986169;28;19941;-81
2022/09/22 11:14:26;;;;;;;;;;;;;;;;;;4995528;28;19964;-81
2022/09/22 11:16:52;;;;;;;;;;;;;;;;;;4994029;28;19910;-82
2022/09/22 11:19:17;;;;;;;;;;;;;;;;;;4994567;28;19980;-81
2022/09/22 11:21:43;;;;;;;;;;;;;;;;;;4993867;28;20336;-83
2022/09/22 11:24:08;;;;;;;;;;;;;;;;;;4993666;28;20360;-82
2022/09/22 11:26:34;;;;;;;;;;;;;;;;;;4977959;28;19917;-82
2022/09/22 11:29:01;;;;;;;;;;;;;;;;;;4993975;28;19914;-82
2022/09/22 11:31:26;;;;;;;;;;;;;;;;;;4993917;28;19913;-82
2022/09/22 11:33:51;;;;;;;;;;;;;;;;;;4993698;28;19940;-82
2022/09/22 11:36:17;;;;;;;;;;;;;;;;;;4992321;28;20023;-82
2022/09/22 11:38:42;;;;;;;;;;;;;;;;;;4992322;28;20517;-81
2022/09/22 11:41:09;;;;;;;;;;;;;;;;;;4991946;28;20474;-82
2022/09/22 11:43:34;;;;;;;;;;;;;;;;;;4986510;28;19922;-81
2022/09/22 11:45:59;;;;;;;;;;;;;;;;;;4994581;28;20381;-81
2022/09/22 11:48:25;;;;;;;;;;;;;;;;;;4980548;28;19914;-81
2022/09/22 11:50:51;;;;;;;;;;;;;;;;;;4999929;28;19953;-79
2022/09/22 11:53:19;;;;;;;;;;;;;;;;;;4993076;28;19953;-80
2022/09/22 11:55:45;;;;;;;;;;;;;;;;;;4994158;28;19918;-79
2022/09/22 11:58:10;;;;;;;;;;;;;;;;;;4974938;28;19985;-80
2022/09/22 12:00:36;;;;;;;;;;;;;;;;;;4992389;28;19964;-80
2022/09/22 12:03:01;;;;;;;;;;;;;;;;;;4992433;28;20010;-80
2022/09/22 12:05:27;;;;;;;;;;;;;;;;;;4994024;28;19921;-78
2022/09/22 12:07:54;;;;;;;;;;;;;;;;;;4992715;28;19987;-81
2022/09/22 12:10:21;;;;;;;;;;;;;;;;;;4989856;28;19977;-80
2022/09/22 12:12:49;;;;;;;;;;;;;;;;;;4982270;28;20337;-79
2022/09/22 12:15:14;;;;;;;;;;;;;;;;;;4984057;28;19926;-80
2022/09/22 12:17:40;;;;;;;;;;;;;;;;;;4989806;28;20601;-79
2022/09/22 12:20:07;;;;;;;;;;;;;;;;;;4993693;28;19976;-79
2022/09/22 12:22:32;;;;;;;;;;;;;;;;;;4992215;28;20005;-80
2022/09/22 12:24:57;;;;;;;;;;;;;;;;;;4994300;28;19953;-80
2022/09/22 12:27:23;;;;;;;;;;;;;;;;;;4973238;28;19958;-79
2022/09/22 12:29:48;;;;;;;;;;;;;;;;;;4990960;28;19914;-79
2022/09/22 12:32:14;;;;;;;;;;;;;;;;;;4992653;28;20385;-78
2022/09/22 12:34:39;;;;;;;;;;;;;;;;;;4992566;28;19921;-79
2022/09/22 12:37:04;;;;;;;;;;;;;;;;;;4992117;28;19914;-80
2022/09/22 12:39:30;;;;;;;;;;;;;;;;;;4993819;28;19914;-80
2022/09/22 12:41:56;;;;;;;;;;;;;;;;;;4993024;28;20388;-79
2022/09/22 12:44:22;;;;;;;;;;;;;;;;;;4993549;28;20435;-79
2022/09/22 12:46:48;;;;;;;;;;;;;;;;;;4979347;28;20024;-79
2022/09/22 12:49:16;;;;;;;;;;;;;;;;;;4988006;28;19921;-79
2022/09/22 12:51:41;;;;;;;;;;;;;;;;;;4992098;28;19918;-79
2022/09/22 12:54:07;;;;;;;;;;;;;;;;;;4991980;28;19916;-79
2022/09/22 12:56:33;;;;;;;;;;;;;;;;;;4976253;28;19950;-79
2022/09/22 12:58:58;;;;;;;;;;;;;;;;;;4992245;28;19918;-78
2022/09/22 13:01:24;;;;;;;;;;;;;;;;;;4993234;28;19929;-79
2022/09/22 13:03:50;;;;;;;;;;;;;;;;;;4987737;28;20393;-78
2022/09/22 13:06:15;;;;;;;;;;;;;;;;;;4982326;28;19921;-80
2022/09/22 13:08:40;;;;;;;;;;;;;;;;;;4965730;28;20028;-80
2022/09/22 13:11:06;;;;;;;;;;;;;;;;;;4986357;28;19949;-79
2022/09/22 13:13:32;;;;;;;;;;;;;;;;;;4986962;28;19914;-80
2022/09/22 13:15:58;;;;;;;;;;;;;;;;;;4992705;28;19969;-78
2022/09/22 13:18:23;;;;;;;;;;;;;;;;;;4991617;28;19925;-80
2022/09/22 13:20:49;;;;;;;;;;;;;;;;;;4992473;28;19917;-80
2022/09/22 13:23:14;;;;;;;;;;;;;;;;;;4992965;28;20369;-80
2022/09/22 13:25:41;;;;;;;;;;;;;;;;;;4989888;28;19941;-80
2022/09/22 13:28:06;;;;;;;;;;;;;;;;;;4991197;28;20396;-79
2022/09/22 13:30:32;;;;;;;;;;;;;;;;;;4992429;28;19914;-79
2022/09/22 13:32:57;;;;;;;;;;;;;;;;;;4991055;28;19913;-78
2022/09/22 13:35:22;;;;;;;;;;;;;;;;;;4990728;28;19929;-80
2022/09/22 13:37:48;;;;;;;;;;;;;;;;;;4991148;28;19918;-77
2022/09/22 13:40:14;;;;;;;;;;;;;;;;;;5001751;22;21078;-79
2022/09/22 13:42:39;;;;;;;;;;;;;;;;;;4991336;28;20016;-79
2022/09/22 13:45:05;;;;;;;;;;;;;;;;;;4992093;28;20019;-79
2022/09/22 13:47:30;;;;;;;;;;;;;;;;;;4990862;28;19973;-79
2022/09/22 13:49:56;;;;;;;;;;;;;;;;;;4992331;28;19917;-79
2022/09/22 13:52:21;;;;;;;;;;;;;;;;;;4992025;28;19937;-79
2022/09/22 13:54:47;;;;;;;;;;;;;;;;;;4976447;28;20032;-79
2022/09/22 13:57:12;;;;;;;;;;;;;;;;;;4986587;28;19914;-79
2022/09/22 13:59:38;;;;;;;;;;;;;;;;;;4992044;28;19929;-79
2022/09/22 14:02:03;;;;;;;;;;;;;;;;;;4986398;28;20020;-79
2022/09/22 14:04:30;;;;;;;;;;;;;;;;;;4992440;28;20015;-82
2022/09/22 14:06:55;;;;;;;;;;;;;;;;;;4991447;28;19940;-83
2022/09/22 14:09:21;;;;;;;;;;;;;;;;;;4992816;28;19913;-86
2022/09/22 14:11:46;;;;;;;;;;;;;;;;;;4990850;28;19936;-83
2022/09/22 14:14:15;;;;;;;;;;;;;;;;;;4986932;28;19915;-82
2022/09/22 14:16:40;;;;;;;;;;;;;;;;;;4991487;28;20297;-80
2022/09/22 14:19:05;;;;;;;;;;;;;;;;;;4989884;28;20026;-79
2022/09/22 14:21:31;;;;;;;;;;;;;;;;;;4992482;28;20104;-78
2022/09/22 14:23:56;;;;;;;;;;;;;;;;;;4992698;28;20441;-79
2022/09/22 14:26:23;;;;;;;;;;;;;;;;;;4992871;28;19918;-79
2022/09/22 14:28:48;;;;;;;;;;;;;;;;;;4990652;28;19914;-79
2022/09/22 14:31:13;;;;;;;;;;;;;;;;;;4990750;28;19914;-78
2022/09/22 14:33:39;;;;;;;;;;;;;;;;;;4990523;28;19913;-77
2022/09/22 14:36:04;;;;;;;;;;;;;;;;;;4991810;28;20456;-79
2022/09/22 14:38:33;;;;;;;;;;;;;;;;;;4992006;28;19917;-78
2022/09/22 14:40:58;;;;;;;;;;;;;;;;;;4974541;28;20024;-78
2022/09/22 14:43:24;;;;;;;;;;;;;;;;;;4990306;28;20433;-78
2022/09/22 14:45:49;;;;;;;;;;;;;;;;;;4975031;28;20001;-78
2022/09/22 14:48:15;;;;;;;;;;;;;;;;;;4991245;28;20327;-80
2022/09/22 14:50:41;;;;;;;;;;;;;;;;;;4990853;28;20436;-79
2022/09/22 14:53:07;;;;;;;;;;;;;;;;;;4988195;28;19914;-79
2022/09/22 14:55:33;;;;;;;;;;;;;;;;;;4994392;28;19914;-78
2022/09/22 14:57:58;;;;;;;;;;;;;;;;;;4995145;28;19913;-78
2022/09/22 15:03:08;;;;;;;;;;;;;;;;;;4995043;28;19920;-79
2022/09/22 15:05:34;;;;;;;;;;;;;;;;;;4993613;28;19914;-79
2022/09/22 15:08:00;;;;;;;;;;;;;;;;;;4992926;28;19921;-80
2022/09/22 15:10:25;;;;;;;;;;;;;;;;;;4986252;28;20404;-79
2022/09/22 15:12:51;;;;;;;;;;;;;;;;;;5009855;28;20289;-78
2022/09/22 15:15:16;;;;;;;;;;;;;;;;;;4995890;28;19917;-79
2022/09/22 15:20:28;;;;;;;;;;;;;;;;;;4994429;28;20333;-79
2022/09/22 15:22:53;;;;;;;;;;;;;;;;;;4988058;28;19967;-79
2022/09/22 15:25:18;;;;;;;;;;;;;;;;;;4993169;28;20266;-79
2022/09/22 15:27:44;;;;;;;;;;;;;;;;;;4988841;28;20337;-79
2022/09/22 15:30:09;;;;;;;;;;;;;;;;;;4994607;28;19914;-80
2022/09/22 15:32:35;;;;;;;;;;;;;;;;;;4993083;28;19922;-79
2022/09/22 15:35:01;;;;;;;;;;;;;;;;;;4991010;28;19917;-79
2022/09/22 15:37:27;;;;;;;;;;;;;;;;;;4992339;28;19932;-79
2022/09/22 15:39:52;;;;;;;;;;;;;;;;;;4992941;28;20077;-79
2022/09/22 15:42:21;;;;;;;;;;;;;;;;;;4985710;28;19917;-79
2022/09/22 15:44:46;;;;;;;;;;;;;;;;;;4993034;28;19917;-79
2022/09/22 15:47:15;;;;;;;;;;;;;;;;;;4992952;28;19925;-79
2022/09/22 15:49:41;;;;;;;;;;;;;;;;;;4994040;28;20393;-81
2022/09/22 15:52:06;;;;;;;;;;;;;;;;;;4993964;28;19933;-79
2022/09/22 15:54:32;;;;;;;;;;;;;;;;;;4988056;28;19913;-79
2022/09/22 15:56:58;;;;;;;;;;;;;;;;;;4992697;28;20427;-79
2022/09/22 15:59:25;;;;;;;;;;;;;;;;;;4996591;28;19948;-78
2022/09/22 16:01:51;;;;;;;;;;;;;;;;;;4979612;28;19984;-79
2022/09/22 16:04:17;;;;;;;;;;;;;;;;;;4992263;28;20341;-79
2022/09/22 16:06:42;;;;;;;;;;;;;;;;;;4993738;28;20238;-79
2022/09/22 16:09:07;;;;;;;;;;;;;;;;;;4992309;28;19963;-79
2022/09/22 16:11:33;;;;;;;;;;;;;;;;;;4993077;28;20293;-79
2022/09/22 16:13:59;;;;;;;;;;;;;;;;;;4992789;28;20407;-79
2022/09/22 16:16:28;;;;;;;;;;;;;;;;;;4992459;28;19913;-79
2022/09/22 16:18:54;;;;;;;;;;;;;;;;;;4992475;28;19914;-77
2022/09/22 16:21:19;;;;;;;;;;;;;;;;;;4992311;28;19921;-79
2022/09/22 16:23:45;;;;;;;;;;;;;;;;;;4992207;28;20125;-79
2022/09/22 16:26:10;;;;;;;;;;;;;;;;;;4993631;28;19914;-78
2022/09/22 16:28:35;;;;;;;;;;;;;;;;;;4992795;28;20012;-78
2022/09/22 16:31:01;;;;;;;;;;;;;;;;;;4990799;28;19918;-77
2022/09/22 16:33:27;;;;;;;;;;;;;;;;;;4991139;28;20304;-78
2022/09/22 16:35:52;;;;;;;;;;;;;;;;;;4993479;28;19936;-77
2022/09/22 16:38:18;;;;;;;;;;;;;;;;;;4992220;28;19914;-79
2022/09/22 16:40:43;;;;;;;;;;;;;;;;;;4992889;28;20404;-78
2022/09/22 16:43:09;;;;;;;;;;;;;;;;;;4998976;28;19917;-79
2022/09/22 16:48:19;;;;;;;;;;;;;;;;;;4991684;28;19921;-79
2022/09/22 16:50:45;;;;;;;;;;;;;;;;;;4988568;28;19911;-78
2022/09/22 16:53:13;;;;;;;;;;;;;;;;;;4990035;28;19921;-78
2022/09/22 16:55:38;;;;;;;;;;;;;;;;;;4992994;28;19953;-78
2022/09/22 16:58:04;;;;;;;;;;;;;;;;;;4992361;28;20515;-78